04:14
Airports
Links
Donate
Help keep this website running!
PayPal
Bitcoin
METAR
RKJK 240406Z AUTO 27008KT 3SM HZ FEW160 SCT180 SCT210 07/03 A3034 RMK AO2 SLP279 $
Current Weather Conditions at RKJK
MVFR 04:06:00 24-02-18
Automated station, no observer
Altimeter:30.34 hg
Temp:7.0°c 45°f
Dew point:3.0°c 37°f
Wind:8 knots, 9.2 mph, 4 m/s, from 270°
Visibility:3.0 statute miles
21000(SCT) Scattered
18000(SCT) Scattered
16000(FEW) A few
Past METAR reports
IFR 03:56:00 24-02-18
Automated station, no observer
Altimeter:30.35 hg
Temp:7.4°c 45°f
Dew point:3.6°c 37°f
Wind:8 knots, 9.2 mph, 4 m/s, from 260°
Visibility:2.75 statute miles
19000(SCT) Scattered
17000(FEW) A few
14000(FEW) A few
RKJK 240356Z AUTO 26008KT 2 3/4SM HZ FEW140 FEW170 SCT190 07/04 A3035 RMK AO2 SLP282 T00740036 $
IFR 03:36:00 24-02-18
Automated station, no observer
Altimeter:30.35 hg
Temp:8.0°c 46°f
Dew point:4.0°c 39°f
Wind:7 knots, 8.1 mph, 4 m/s, from 250°
Visibility:2.75 statute miles
20000(BKN) Broken
17000(SCT) Scattered
14000(SCT) Scattered
RKJK 240336Z AUTO 25007KT 2 3/4SM HZ SCT140 SCT170 BKN200 08/04 A3035 RMK AO2 SLP282 $
MVFR 02:56:00 24-02-18
Automated station, no observer
Altimeter:30.36 hg
Temp:8.1°c 46°f
Dew point:3.6°c 37°f
Wind:4 knots, 4.6 mph, 2 m/s, from 180°
Visibility:3.0 statute miles
20000(SCT) Scattered
18000(FEW) A few
14000(FEW) A few
RKJK 240256Z AUTO 18004KT 3SM HZ FEW140 FEW180 SCT200 08/04 A3036 RMK AO2 SLP286 T00810036 50001 $
MVFR 02:36:00 24-02-18
Automated station, no observer
Altimeter:30.37 hg
Temp:8.0°c 46°f
Dew point:4.0°c 39°f
Wind:5 knots, 5.8 mph, 3 m/s, from 30°
Visibility:3.0 statute miles
20000(SCT) Scattered
17000(FEW) A few
RKJK 240236Z AUTO 03005KT 3SM HZ FEW170 SCT200 08/04 A3037 RMK AO2 SLP289 $
IFR 02:26:00 24-02-18
Automated station, no observer
Altimeter:30.37 hg
Temp:8.0°c 46°f
Dew point:4.0°c 39°f
Wind:3 knots, 3.5 mph, 2 m/s, from 20°
Visibility:2.75 statute miles
20000(SCT) Scattered
16000(FEW) A few
RKJK 240226Z AUTO 02003KT 2 3/4SM HZ FEW160 SCT200 08/04 A3037 RMK AO2 SLP289 $
MVFR 02:06:00 24-02-18
Automated station, no observer
Altimeter:30.37 hg
Temp:7.0°c 45°f
Dew point:5.0°c 41°f
Wind:3 knots, 3.5 mph, 2 m/s, from 50°
Visibility:3.0 statute miles
20000(FEW) A few
16000(FEW) A few
RKJK 240206Z AUTO 05003KT 3SM HZ FEW160 FEW200 07/05 A3037 RMK AO2 SLP289 $
TAF
TAF AMD RKJK 240114Z 2401/2505 VRB06KT 4000 BR FEW180 QNH3028INS BECMG 2402/2403 34006KT 9999 NSW SCT140 QNH3029INS TX07/2404Z TN00/2423Z
Forecast at RKJK
01:00 24-02-18 to 02:00 24-02-18
BR
Wind:6 Knots from 360°
Visibility:2.49 statute miles
18000FEW A few
BECMG 02:00 24-02-18 to 05:00 25-02-18
NSW
Wind:6 Knots from 340°
Visibility:6.21 statute miles
14000SCT Scattered